• Join FlightAware (Why Join?)
  • Login
  • US Flag 
11:14AM EDT


 

Airport Tracker/Info


-or-


 

Live Flight TrackerFlight Track Log ✈ ACA860 ✈ 19-Apr-2013 ✈ CYHZ - EGLL / LHR

Flight Track Log - Related Links

Times and Time Zones

All times are in EDT time to prevent confusion due to time zone crossing. See the ACA860 flight status page for this flight to view local times or setup timezone preferences in your user account.

Time Position Orientation Groundspeed Altitude Reporting Facility
EDT Latitude Longitude Course Direction KTS MPH feet Rate Location/Type
10:51PM 44.8333 -63.5167 59° Northeast 160 184 2,500  Level Moncton Center
10:52PM 44.8000 -63.5000 160° South 230 265 4,700 2,400 Climbing Moncton Center
10:53PM 44.7833 -63.3833 101° East 290 334 7,400 2,940 Climbing Moncton Center
10:54PM 44.8500 -63.2833 47° Northeast 330 380 10,600 2,580 Climbing Moncton Center
10:55PM 45.1265 -62.8518 57° Northeast  Level FlightAware Approximate
10:55PM 44.9167 -63.2000 42° Northeast 370 426 12,600  Level Moncton Center
10:56PM 45.1824 -62.6853 55° Northeast  Level FlightAware Approximate
10:56PM 45.0000 -63.0667 49° Northeast 420 483 15,700  Level Moncton Center
10:57PM 45.2499 -62.5238 59° Northeast  Level FlightAware Approximate
10:57PM 45.0833 -62.9333 48° Northeast 430 495 18,800  Level Moncton Center
10:58PM 45.1500 -62.7833 58° Northeast 450 518 21,300 2,640 Climbing Moncton Center
10:59PM 45.2167 -62.6167 60° Northeast 470 541 24,100 2,460 Climbing Moncton Center
11:00PM 45.2667 -62.4500 67° East 480 552 26,300 1,440 Climbing Moncton Center
11:07PM 45.6890 -61.3610 67° East 495 570 35,000 1,200 Climbing FlightAware
11:07PM 45.7360 -61.2270 63° Northeast 493 567 35,000  Level FlightAware
11:08PM 45.7780 -61.1110 63° Northeast 492 566 35,000  Level FlightAware
11:09PM 45.8190 -60.9980 62° Northeast 491 565 35,000  Level FlightAware
11:10PM 45.8660 -60.8680 63° Northeast 489 563 35,000  Level FlightAware
11:10PM 45.9060 -60.7540 63° Northeast 489 563 35,000  Level FlightAware
11:11PM 45.9470 -60.6400 63° Northeast 486 559 35,000  Level FlightAware
11:12PM 45.9940 -60.5060 63° Northeast 487 560 35,000  Level FlightAware
11:12PM 46.0350 -60.3900 63° Northeast 487 560 35,000  Level FlightAware
11:13PM 46.0750 -60.2750 63° Northeast 486 559 35,000  Level FlightAware
11:14PM 46.1180 -60.1500 64° Northeast 487 560 35,000  Level FlightAware
11:14PM 46.1720 -60.0180 59° Northeast 487 560 35,000  Level FlightAware
11:15PM 46.2180 -59.9320 52° Northeast 487 560 35,000  Level FlightAware
11:16PM 46.2820 -59.8150 52° Northeast 488 562 35,000  Level FlightAware
11:17PM 46.3440 -59.7000 52° Northeast 488 562 35,000  Level FlightAware
11:17PM 46.3980 -59.6000 52° Northeast 487 560 35,000  Level FlightAware
11:18PM 46.4620 -59.4820 52° Northeast 488 562 35,000  Level FlightAware
11:19PM 46.5180 -59.3780 52° Northeast 488 562 35,000  Level FlightAware
11:19PM 46.5730 -59.2750 52° Northeast 487 560 35,000  Level FlightAware
11:20PM 46.6340 -59.1620 52° Northeast 488 562 35,000  Level FlightAware
11:21PM 46.6890 -59.0570 53° Northeast 488 562 35,000  Level FlightAware
11:21PM 46.7530 -58.9380 52° Northeast 487 560 35,000  Level FlightAware
11:22PM 46.8080 -58.8340 52° Northeast 488 562 35,000  Level FlightAware
11:23PM 46.8640 -58.7280 52° Northeast 489 563 35,000  Level FlightAware
11:24PM 46.9230 -58.6140 53° Northeast 490 564 35,000  Level FlightAware
11:24PM 46.9780 -58.5090 52° Northeast 491 565 35,000  Level FlightAware
11:25PM 47.0520 -58.3680 52° Northeast 491 565 35,000  Level FlightAware
11:26PM 47.0990 -58.2790 52° Northeast 491 565 35,000  Level FlightAware
11:26PM 47.1470 -58.1890 52° Northeast 491 565 35,000  Level FlightAware
11:27PM 47.1940 -58.1000 52° Northeast 491 565 35,000  Level FlightAware
11:28PM 47.2540 -57.9880 52° Northeast 491 565 35,000  Level FlightAware
11:29PM 47.3010 -57.8980 52° Northeast 491 565 35,000  Level FlightAware
11:29PM 47.3490 -57.8080 52° Northeast 491 565 35,000  Level FlightAware
11:30PM 47.3960 -57.7180 52° Northeast 491 565 35,000  Level FlightAware
11:31PM 47.4440 -57.6290 51° Northeast 491 565 35,000  Level FlightAware
11:31PM 47.5030 -57.5160 52° Northeast 491 565 35,000  Level FlightAware
11:32PM 47.6180 -57.2220 60° Northeast 495 570 35,000  Level FlightAware
11:33PM 47.6710 -57.0870 60° Northeast 495 570 35,000  Level FlightAware
11:34PM 47.7230 -56.9460 61° Northeast 493 567 35,000  Level FlightAware
11:34PM 47.7750 -56.8070 61° Northeast 491 565 35,000  Level FlightAware
11:35PM 47.8190 -56.6880 61° Northeast 490 564 35,000  Level FlightAware
11:36PM 47.8680 -56.5570 61° Northeast 491 565 35,000  Level FlightAware
11:37PM 47.9120 -56.4390 61° Northeast 491 565 35,000  Level FlightAware
11:37PM 47.9530 -56.3270 61° Northeast 490 564 35,000  Level FlightAware
11:38PM 48.0050 -56.1850 61° Northeast 492 566 35,000  Level FlightAware
11:39PM 48.0450 -56.0740 62° Northeast 492 566 35,000  Level FlightAware
11:39PM 48.0910 -55.9470 61° Northeast 488 562 35,000  Level FlightAware
11:40PM 48.1340 -55.8300 61° Northeast 491 565 35,000  Level FlightAware
11:41PM 48.1830 -55.6930 62° Northeast 492 566 35,000  Level FlightAware
11:41PM 48.2240 -55.5760 62° Northeast 493 567 35,000  Level FlightAware
11:42PM 48.2660 -55.4590 62° Northeast 493 567 35,000  Level FlightAware
11:43PM 48.3110 -55.3340 62° Northeast 493 567 35,000  Level FlightAware
11:43PM 48.3590 -55.1960 62° Northeast 493 567 35,000  Level FlightAware
11:44PM 48.4020 -55.0730 62° Northeast 494 568 35,000  Level FlightAware
11:45PM 48.4470 -54.9430 62° Northeast 494 568 35,000  Level FlightAware
11:46PM 48.4900 -54.8190 62° Northeast 494 568 35,000  Level FlightAware
11:46PM 48.5330 -54.6960 62° Northeast 494 568 35,000  Level FlightAware
11:47PM 48.5780 -54.5660 62° Northeast 495 570 35,000  Level FlightAware
11:48PM 48.6220 -54.4370 63° Northeast 495 570 35,000  Level FlightAware
11:48PM 48.6760 -54.2800 62° Northeast 495 570 35,000 120 Level FlightAware
11:49PM 48.7170 -54.1570 63° Northeast 495 570 35,200 300 Climbing FlightAware
11:50PM 48.7640 -54.0160 63° Northeast 496 571 35,500 480 Climbing FlightAware
11:51PM 48.8050 -53.8940 63° Northeast 496 571 35,900 300 Climbing FlightAware
11:51PM 48.8520 -53.7520 63° Northeast 496 571 36,000  Climbing FlightAware
11:53PM 48.9300 -53.5180 63° Northeast 488 562 36,000  Level FlightAware
11:56PM 49.1340 -52.8870 64° Northeast 493 567 36,000  Level FlightAware
11:57PM 49.1720 -52.7660 64° Northeast 494 568 36,000  Level FlightAware
11:57PM 49.2140 -52.6350 64° Northeast 496 571 36,000  Level FlightAware
11:59PM 49.3090 -52.3290 64° Northeast 494 568 36,000  Level FlightAware
12:00AM 49.3420 -52.2200 65° Northeast 494 568 36,000  Level FlightAware
12:00AM 49.3890 -52.0770 63° Northeast 496 571 36,000  Level FlightAware
12:01AM 49.4360 -51.9280 64° Northeast 500 575 36,000  Level FlightAware
12:02AM 49.4700 -51.8150 65° Northeast 500 575 36,000  Level FlightAware
12:03AM 49.5240 -51.6390 65° Northeast 501 577 36,000  Level FlightAware
12:03AM 49.5640 -51.5080 65° Northeast 502 578 36,000  Level FlightAware
12:04AM 49.6030 -51.3800 65° Northeast 503 579 36,000  Level FlightAware
12:05AM 49.6470 -51.2300 66° East 503 579 36,000  Level FlightAware
12:05AM 49.6850 -51.1020 65° Northeast 503 579 36,000  Level FlightAware
12:06AM 49.7170 -50.9970 65° Northeast 503 579 36,000  Level FlightAware
12:07AM 49.7590 -50.8580 65° Northeast 503 579 36,000  Level FlightAware
12:07AM 49.7920 -50.7470 65° Northeast 503 579 36,000  Level FlightAware
12:08AM 49.8250 -50.6360 65° Northeast 503 579 36,000  Level FlightAware
12:09AM 49.8590 -50.5250 65° Northeast 503 579 36,000  Level FlightAware
12:10AM 49.9010 -50.3860 65° Northeast 503 579 36,000  Level FlightAware
12:10AM 49.9340 -50.2750 65° Northeast 503 579 36,000  Level FlightAware
12:11AM 49.9670 -50.1630 65° Northeast 503 579 36,000  Level FlightAware
12:12AM 50.0010 -50.0520 64° Northeast 503 579 36,000  Level FlightAware
12:12AM 50.0340 -49.9400 65° Northeast 503 579 36,000  Level FlightAware
12:13AM 50.0760 -49.8000 65° Northeast 503 579 36,000  Level FlightAware
12:13AM 50.0000 -50.0000 77° East 503 579 36,000  Level ETMS Enhanced Traffic Management System
12:14AM 50.1100 -49.6890 64° Northeast 503 579 36,000  Level FlightAware
12:14AM 50.0667 -49.2667 77° East 510 587 36,000  Level Gander Center
12:14AM 50.1350 -49.6050 65° Northeast 503 579 36,000  Level FlightAware
12:15AM 50.0833 -49.1333 79° East 510 587 36,000  Level Gander Center
12:15AM 50.1680 -49.4930 65° Northeast 503 579 36,000  Level FlightAware
12:16AM 50.1000 -48.9167 83° East 510 587 36,000  Level Gander Center
12:17AM 50.1333 -48.7000 76° East 500 575 36,000  Level Gander Center
12:18AM 50.1667 -48.4833 76° East 500 575 36,000  Level Gander Center
12:19AM 50.1833 -48.2833 83° East 500 575 36,000  Level Gander Center
12:19AM 50.2167 -48.1667 66° East 500 575 36,000  Level Gander Center
12:20AM 50.2333 -48.0667 75° East 490 564 36,000  Level Gander Center
12:21AM 50.2500 -47.8500 83° East 500 575 36,000  Level Gander Center
12:23AM 50.2869 -47.5658 78° East  Level FlightAware Approximate
12:30AM 50.4629 -46.1209 79° East  Level FlightAware Approximate
12:31AM 50.4866 -45.9136 80° East  Level FlightAware Approximate
12:32AM 50.5099 -45.7062 80° East  Level FlightAware Approximate
12:33AM 50.5328 -45.4985 80° East  Level FlightAware Approximate
12:34AM 50.5554 -45.2906 80° East  Level FlightAware Approximate
12:35AM 50.5776 -45.0825 80° East  Level FlightAware Approximate
12:36AM 50.5994 -44.8743 81° East  Level FlightAware Approximate
12:37AM 50.6209 -44.6658 81° East  Level FlightAware Approximate
12:38AM 50.6419 -44.4572 81° East  Level FlightAware Approximate
12:39AM 50.6627 -44.2483 81° East  Level FlightAware Approximate
12:40AM 50.6830 -44.0393 81° East  Level FlightAware Approximate
12:41AM 50.7030 -43.8301 81° East  Level FlightAware Approximate
12:42AM 50.7225 -43.6207 82° East  Level FlightAware Approximate
12:43AM 50.7418 -43.4112 82° East  Level FlightAware Approximate
12:44AM 50.7606 -43.2015 82° East  Level FlightAware Approximate
12:45AM 50.7791 -42.9916 82° East  Level FlightAware Approximate
12:46AM 50.7971 -42.7815 82° East  Level FlightAware Approximate
12:47AM 50.8148 -42.5713 82° East  Level FlightAware Approximate
12:48AM 50.8322 -42.3610 82° East  Level FlightAware Approximate
12:49AM 50.8491 -42.1504 83° East  Level FlightAware Approximate
12:50AM 50.8657 -41.9398 83° East  Level FlightAware Approximate
12:51AM 50.8819 -41.7290 83° East  Level FlightAware Approximate
12:52AM 50.8977 -41.5180 83° East  Level FlightAware Approximate
12:53AM 50.9131 -41.3069 83° East  Level FlightAware Approximate
12:54AM 50.9282 -41.0956 83° East  Level FlightAware Approximate
12:55AM 50.9428 -40.8843 84° East  Level FlightAware Approximate
12:56AM 50.9571 -40.6727 84° East  Level FlightAware Approximate
12:57AM 50.9711 -40.4611 84° East  Level FlightAware Approximate
12:58AM 50.9846 -40.2493 84° East  Level FlightAware Approximate
12:59AM 50.9977 -40.0374 84° East  Level FlightAware Approximate
01:00AM 51.0247 -39.8292 77° East  Level FlightAware Approximate
01:01AM 51.0544 -39.6213 77° East  Level FlightAware Approximate
01:02AM 51.0838 -39.4132 77° East  Level FlightAware Approximate
01:03AM 51.1127 -39.2049 77° East  Level FlightAware Approximate
01:03AM 51.0000 -40.0000 77° East 503 579 36,000  Level ETMS Enhanced Traffic Management System
01:04AM 51.1413 -38.9963 78° East  Level FlightAware Approximate
01:05AM 51.1696 -38.7874 78° East  Level FlightAware Approximate
01:06AM 51.1974 -38.5783 78° East  Level FlightAware Approximate
01:07AM 51.2249 -38.3689 78° East  Level FlightAware Approximate
01:08AM 51.2520 -38.1592 78° East  Level FlightAware Approximate
01:09AM 51.3225 -37.5988 79° East 503 579 36,000  Level FlightAware Transoceanic
01:10AM 51.3493 -37.3789 79° East 503 579 36,000  Level FlightAware Transoceanic
01:11AM 51.3758 -37.1587 79° East 503 579 36,000  Level FlightAware Transoceanic
01:12AM 51.4018 -36.9383 79° East 503 579 36,000  Level FlightAware Transoceanic
01:13AM 51.4274 -36.7176 80° East 503 579 36,000  Level FlightAware Transoceanic
01:14AM 51.4527 -36.4967 80° East 503 579 36,000  Level FlightAware Transoceanic
01:15AM 51.4775 -36.2755 80° East 503 579 36,000  Level FlightAware Transoceanic
01:16AM 51.5018 -36.0541 80° East 503 579 36,000  Level FlightAware Transoceanic
01:17AM 51.5258 -35.8325 80° East 503 579 36,000  Level FlightAware Transoceanic
01:18AM 51.5493 -35.6106 80° East 503 579 36,000  Level FlightAware Transoceanic
01:19AM 51.5725 -35.3885 81° East 503 579 36,000  Level FlightAware Transoceanic
01:20AM 51.5952 -35.1662 81° East 503 579 36,000  Level FlightAware Transoceanic
01:21AM 51.6175 -34.9437 81° East 503 579 36,000  Level FlightAware Transoceanic
01:22AM 51.6393 -34.7210 81° East 503 579 36,000  Level FlightAware Transoceanic
01:23AM 51.6608 -34.4980 81° East 503 579 36,000  Level FlightAware Transoceanic
01:24AM 51.6818 -34.2748 81° East 503 579 36,000  Level FlightAware Transoceanic
01:25AM 51.7024 -34.0514 82° East 503 579 36,000  Level FlightAware Transoceanic
01:26AM 51.7225 -33.8278 82° East 503 579 36,000  Level FlightAware Transoceanic
01:27AM 51.7423 -33.6041 82° East 503 579 36,000  Level FlightAware Transoceanic
01:28AM 51.7616 -33.3801 82° East 503 579 36,000  Level FlightAware Transoceanic
01:29AM 51.7805 -33.1559 82° East 503 579 36,000  Level FlightAware Transoceanic
01:30AM 51.7990 -32.9316 83° East 503 579 36,000  Level FlightAware Transoceanic
01:31AM 51.8170 -32.7071 83° East 503 579 36,000  Level FlightAware Transoceanic
01:32AM 51.8346 -32.4823 83° East 503 579 36,000  Level FlightAware Transoceanic
01:33AM 51.8518 -32.2575 83° East 503 579 36,000  Level FlightAware Transoceanic
01:34AM 51.8686 -32.0324 83° East 503 579 36,000  Level FlightAware Transoceanic
01:35AM 51.8849 -31.8072 83° East 503 579 36,000  Level FlightAware Transoceanic
01:36AM 51.9008 -31.5818 84° East 503 579 36,000  Level FlightAware Transoceanic
01:37AM 51.9163 -31.3563 84° East 503 579 36,000  Level FlightAware Transoceanic
01:38AM 51.9313 -31.1306 84° East 503 579 36,000  Level FlightAware Transoceanic
01:39AM 51.9459 -30.9048 84° East 503 579 36,000  Level FlightAware Transoceanic
01:40AM 51.9601 -30.6788 84° East 503 579 36,000  Level FlightAware Transoceanic
01:41AM 51.9738 -30.4527 84° East 503 579 36,000  Level FlightAware Transoceanic
01:42AM 51.9871 -30.2264 85° East 503 579 36,000  Level FlightAware Transoceanic
01:43AM 51.9992 -30.0134 85° East  Level FlightAware Approximate
01:44AM 52.0110 -29.8002 85° East  Level FlightAware Approximate
01:45AM 52.0078 -29.8133 86° East  Level FlightAware Approximate
01:45AM 52.0000 -30.0000 86° East 515 593 36,000  Level ETMS Enhanced Traffic Management System
01:46AM 52.0163 -29.5997 86° East  Level FlightAware Approximate
01:47AM 52.0244 -29.3861 86° East  Level FlightAware Approximate
01:48AM 52.0322 -29.1724 87° East  Level FlightAware Approximate
01:49AM 52.0396 -28.9586 87° East  Level FlightAware Approximate
01:50AM 52.0466 -28.7447 87° East  Level FlightAware Approximate
01:51AM 52.0577 -28.3750 87° East 515 593 36,000  Level FlightAware Transoceanic
01:52AM 52.0641 -28.1425 88° East 515 593 36,000  Level FlightAware Transoceanic
01:53AM 52.0701 -27.9100 88° East 515 593 36,000  Level FlightAware Transoceanic
01:54AM 52.0756 -27.6774 88° East 515 593 36,000  Level FlightAware Transoceanic
01:55AM 52.0806 -27.4448 88° East 515 593 36,000  Level FlightAware Transoceanic
01:56AM 52.0852 -27.2121 88° East 515 593 36,000  Level FlightAware Transoceanic
01:57AM 52.0894 -26.9794 88° East 515 593 36,000  Level FlightAware Transoceanic
01:58AM 52.0930 -26.7466 89° East 515 593 36,000  Level FlightAware Transoceanic
01:59AM 52.0962 -26.5138 89° East 515 593 36,000  Level FlightAware Transoceanic
02:00AM 52.0990 -26.2810 89° East 515 593 36,000  Level FlightAware Transoceanic
02:01AM 52.1013 -26.0481 89° East 515 593 36,000  Level FlightAware Transoceanic
02:02AM 52.1031 -25.8152 89° East 515 593 36,000  Level FlightAware Transoceanic
02:03AM 52.1045 -25.5823 90° East 515 593 36,000  Level FlightAware Transoceanic
02:04AM 52.1054 -25.3494 90° East 515 593 36,000  Level FlightAware Transoceanic
02:05AM 52.1059 -25.1165 90° East 515 593 36,000  Level FlightAware Transoceanic
02:06AM 52.1059 -24.8835 90° East 515 593 36,000  Level FlightAware Transoceanic
02:07AM 52.1054 -24.6506 90° East 515 593 36,000  Level FlightAware Transoceanic
02:08AM 52.1045 -24.4177 90° East 515 593 36,000  Level FlightAware Transoceanic
02:09AM 52.1031 -24.1848 91° East 515 593 36,000  Level FlightAware Transoceanic
02:10AM 52.1013 -23.9519 91° East 515 593 36,000  Level FlightAware Transoceanic
02:11AM 52.0990 -23.7190 91° East 515 593 36,000  Level FlightAware Transoceanic
02:12AM 52.0962 -23.4862 91° East 515 593 36,000  Level FlightAware Transoceanic
02:13AM 52.0930 -23.2534 91° East 515 593 36,000  Level FlightAware Transoceanic
02:14AM 52.0894 -23.0206 92° East 515 593 36,000  Level FlightAware Transoceanic
02:15AM 52.0852 -22.7879 92° East 515 593 36,000  Level FlightAware Transoceanic
02:16AM 52.0806 -22.5552 92° East 515 593 36,000  Level FlightAware Transoceanic
02:17AM 52.0756 -22.3226 92° East 515 593 36,000  Level FlightAware Transoceanic
02:18AM 52.0701 -22.0900 92° East 515 593 36,000  Level FlightAware Transoceanic
02:19AM 52.0641 -21.8575 92° East 515 593 36,000  Level FlightAware Transoceanic
02:20AM 52.0577 -21.6250 93° East 515 593 36,000  Level FlightAware Transoceanic
02:21AM 52.0508 -21.3926 93° East 515 593 36,000  Level FlightAware Transoceanic
02:22AM 52.0435 -21.1603 93° East 515 593 36,000  Level FlightAware Transoceanic
02:23AM 52.0357 -20.9281 93° East 515 593 36,000  Level FlightAware Transoceanic
02:24AM 52.0275 -20.6959 93° East 515 593 36,000  Level FlightAware Transoceanic
02:25AM 52.0188 -20.4639 94° East 515 593 36,000  Level FlightAware Transoceanic
02:26AM 52.0096 -20.2319 94° East 515 593 36,000  Level FlightAware Transoceanic
02:27AM 52.0008 -20.0190 94° East  Level FlightAware Approximate
02:28AM 51.9916 -19.8063 94° East  Level FlightAware Approximate
02:29AM 52.0064 -19.8252 87° East  Level FlightAware Approximate
02:30AM 52.0138 -19.6122 87° East  Level FlightAware Approximate
02:31AM 52.0209 -19.3992 87° East  Level FlightAware Approximate
02:32AM 52.0275 -19.1860 87° East  Level FlightAware Approximate
02:33AM 52.0338 -18.9729 87° East  Level FlightAware Approximate
02:34AM 52.0397 -18.7596 87° East  Level FlightAware Approximate
02:35AM 52.0452 -18.5463 88° East  Level FlightAware Approximate
02:36AM 52.0504 -18.3330 88° East  Level FlightAware Approximate
02:37AM 52.0551 -18.1196 88° East  Level FlightAware Approximate
02:38AM 52.0594 -17.9061 88° East  Level FlightAware Approximate
02:39AM 52.0634 -17.6927 88° East  Level FlightAware Approximate
02:40AM 52.0670 -17.4792 88° East  Level FlightAware Approximate
02:41AM 52.0705 -17.2656 88° East  Level FlightAware Approximate
02:42AM 52.0735 -17.0520 89° East  Level FlightAware Approximate
02:43AM 52.0762 -16.8385 89° East  Level FlightAware Approximate
02:44AM 52.0785 -16.6248 89° East  Level FlightAware Approximate
02:45AM 52.0804 -16.4112 89° East  Level FlightAware Approximate
02:46AM 52.0820 -16.1975 89° East  Level FlightAware Approximate
02:47AM 52.0831 -15.9839 89° East  Level FlightAware Approximate
02:48AM 52.0838 -15.7702 90° East  Level FlightAware Approximate
02:49AM 52.0842 -15.5565 90° East  Level FlightAware Approximate
02:50AM 52.0842 -15.3428 90° East  Level FlightAware Approximate
02:51AM 52.0838 -15.1292 90° East  Level FlightAware Approximate
02:52AM 52.0832 -14.9155 90° East  Level FlightAware Approximate
02:53AM 52.0825 -14.7018 90° East  Level FlightAware Approximate
02:54AM 52.0814 -14.4882 90° East  Level FlightAware Approximate
02:55AM 52.0799 -14.2745 91° East  Level FlightAware Approximate
02:56AM 52.0780 -14.0609 91° East  Level FlightAware Approximate
02:57AM 52.0758 -13.8472 91° East  Level FlightAware Approximate
02:58AM 52.0731 -13.6337 91° East  Level FlightAware Approximate
02:59AM 52.0701 -13.4201 91° East  Level FlightAware Approximate
03:00AM 52.0667 -13.2065 91° East  Level FlightAware Approximate
03:01AM 52.0629 -12.9930 92° East  Level FlightAware Approximate
03:02AM 52.0587 -12.7796 92° East  Level FlightAware Approximate
03:03AM 52.0542 -12.5662 92° East  Level FlightAware Approximate
03:04AM 52.0492 -12.3528 92° East  Level FlightAware Approximate
03:05AM 52.0439 -12.1395 92° East  Level FlightAware Approximate
03:06AM 52.0382 -11.9262 92° East  Level FlightAware Approximate
03:07AM 52.0321 -11.7130 93° East  Level FlightAware Approximate
03:08AM 52.0256 -11.4998 93° East  Level FlightAware Approximate
03:08AM 51.4210 -11.3590 93° East 483 556 36,000  Level FlightAware
03:09AM 52.0187 -11.2867 93° East  Level FlightAware Approximate
03:09AM 51.4310 -11.2530 81° East 36,000  Level FlightAware
03:10AM 51.4460 -11.1000 81° East 481 554 36,000  Level FlightAware
03:10AM 51.4630 -10.9130 82° East 482 555 36,000  Level FlightAware
03:11AM 51.4760 -10.7730 81° East 482 555 36,000  Level FlightAware
03:12AM 51.4930 -10.5890 81° East 481 554 36,000  Level FlightAware
03:13AM 51.5060 -10.4440 82° East 481 554 36,000  Level FlightAware
03:13AM 51.5190 -10.2940 82° East 481 554 36,000  Level FlightAware
03:14AM 51.5330 -10.1340 82° East 482 555 36,000  Level FlightAware
03:15AM 51.5440 -10.0100 82° East 482 555 36,000  Level FlightAware
03:16AM 51.5620 -9.7940 82° East 483 556 36,000  Level FlightAware
03:16AM 51.5730 -9.6590 82° East 482 555 36,000  Level FlightAware
03:18AM 51.6030 -9.2740 83° East 480 552 36,000  Level FlightAware
03:19AM 51.6150 -9.1300 82° East 479 551 36,000  Level FlightAware
03:19AM 51.6260 -8.9890 83° East 478 550 36,000 -1,680 Level FlightAware
03:20AM 51.6257 -8.9384 83° East 446 513 34,500 -2,760 Descending FlightAware UK
03:20AM 51.6304 -8.8751 83° East 446 513 34,500  Level FlightAware UK
03:20AM 51.6352 -8.8118 83° East 446 513 34,500  Level FlightAware UK
03:21AM 51.6399 -8.7488 83° East 444 511 34,500 2,640 Level FlightAware UK
03:21AM 51.6470 -8.7020 83° East 475 547 36,000  Climbing FlightAware
03:21AM 51.6509 -8.6014 83° East 444 511 34,500  Descending FlightAware UK
03:22AM 51.6570 -8.5650 83° East 473 544 36,000  Climbing FlightAware
03:22AM 51.6584 -8.4966 83° East 442 509 34,500 -2,700 Descending FlightAware UK
03:22AM 51.6628 -8.4337 84° East 442 509 34,500 2,040 Level FlightAware UK
03:23AM 51.6730 -8.3420 84° East 473 544 36,000  Climbing FlightAware
03:23AM 51.6732 -8.2871 84° East 442 509 34,500  Descending FlightAware UK
03:23AM 51.6830 -8.2040 84° East 472 543 36,000  Climbing FlightAware
03:24AM 51.6843 -8.1400 84° East 444 511 34,500 -2,520 Descending FlightAware UK
03:24AM 51.6892 -8.0772 83° East 444 511 34,500  Level FlightAware UK
03:24AM 51.6952 -7.9934 83° East 442 509 34,500  Level FlightAware UK
03:25AM 51.6994 -7.9306 84° East 442 509 34,500 3,600 Level FlightAware UK
03:25AM 51.7030 -7.9040 84° East 472 543 36,000  Climbing FlightAware
03:25AM 51.7048 -7.8469 84° East 442 509 34,500 -2,580 Descending FlightAware UK
03:25AM 51.7088 -7.7840 84° East 442 509 34,500 3,900 Level FlightAware UK
03:25AM 51.7120 -7.7630 84° East 472 543 36,000  Climbing FlightAware
03:26AM 51.7155 -7.6795 84° East 442 509 34,500 -2,100 Descending FlightAware UK
03:26AM 51.7196 -7.6167 84° East 442 509 34,500 4,500 Level FlightAware UK
03:26AM 51.7220 -7.6100 84° East 472 543 36,000  Climbing FlightAware
03:26AM 51.7251 -7.5330 84° East 442 509 34,500  Descending FlightAware UK
03:27AM 51.7310 -7.4690 84° East 472 543 36,000  Climbing FlightAware
03:27AM 51.7345 -7.3856 84° East 440 506 34,500  Descending FlightAware UK
03:27AM 51.7390 -7.3310 84° East 473 544 36,000  Climbing FlightAware
03:28AM 51.7409 -7.2607 84° East 442 509 34,500 -2,400 Descending FlightAware UK
03:28AM 51.7442 -7.1979 85° East 442 509 34,500 4,500 Level FlightAware UK
03:28AM 51.7480 -7.1880 85° East 473 544 36,000 -1,380 Climbing FlightAware
03:28AM 51.7480 -7.1342 85° East 446 513 34,100 -3,900 Descending FlightAware UK
03:29AM 51.7530 -7.0498 84° East 448 516 33,400 1,620 Descending FlightAware UK
03:29AM 51.7570 -7.0330 84° East 481 554 34,900 -1,800 Climbing FlightAware
03:29AM 51.7587 -6.9627 84° East 452 520 32,700 -4,080 Descending FlightAware UK
03:29AM 51.7623 -6.8981 85° East 448 516 32,400 2,760 Descending FlightAware UK
03:30AM 51.7670 -6.8670 85° East 481 554 33,900 -780 Climbing FlightAware
03:30AM 51.7673 -6.8128 85° East 444 511 32,100 -3,000 Descending FlightAware UK
03:30AM 51.7719 -6.7286 85° East 438 504 31,900 3,240 Descending FlightAware UK
03:30AM 51.7750 -6.7250 85° East 470 541 33,400 -720 Climbing FlightAware
03:31AM 51.7798 -6.5836 85° East 436 502 31,400 -540 Descending FlightAware UK
03:31AM 51.7820 -6.5710 85° East 467 537 33,000  Climbing FlightAware
03:31AM 51.7800 -6.5213 85° East 440 506 31,400 -2,520 Descending FlightAware UK
03:32AM 51.7766 -6.4366 94° East 444 511 31,400 3,840 Level FlightAware UK
03:32AM 51.7800 -6.4340 94° East 473 544 33,000 300 Climbing FlightAware
03:32AM 51.7737 -6.3726 94° East 440 506 31,500 -2,580 Descending FlightAware UK
03:32AM 51.7707 -6.3099 94° East 436 502 31,500 3,900 Level FlightAware UK
03:32AM 51.7740 -6.2930 94° East 465 535 33,000  Climbing FlightAware
03:33AM 51.7670 -6.2271 94° East 432 497 31,500 -2,460 Descending FlightAware UK
03:33AM 51.7645 -6.1654 94° East 432 497 31,500 3,420 Level FlightAware UK
03:33AM 51.7680 -6.1360 94° East 461 531 33,000  Climbing FlightAware
03:33AM 51.7611 -6.0836 94° East 432 497 31,500  Descending FlightAware UK
03:34AM 51.7620 -6.0000 94° East 462 532 33,000  Climbing FlightAware
03:34AM 51.7554 -5.9403 94° East 434 499 31,500 -2,160 Descending FlightAware UK
03:34AM 51.7520 -5.8581 94° East 434 499 31,500 3,300 Level FlightAware UK
03:34AM 51.7560 -5.8460 94° East 463 533 33,000  Climbing FlightAware
03:35AM 51.7494 -5.7963 94° East 436 502 31,500  Descending FlightAware UK
03:35AM 51.7490 -5.7060 94° East 463 533 33,000  Climbing FlightAware
03:35AM 51.7429 -5.6523 94° East 440 506 31,500  Descending FlightAware UK
03:36AM 51.7430 -5.5690 94° East 462 532 33,000  Climbing FlightAware
03:36AM 51.7361 -5.5080 94° East 438 504 31,500 -2,460 Descending FlightAware UK
03:36AM 51.7333 -5.4463 94° East 438 504 31,500 3,420 Level FlightAware UK
03:37AM 51.7360 -5.4100 94° East 461 531 33,000  Climbing FlightAware
03:37AM 51.7295 -5.3634 94° East 440 506 31,500 -2,700 Descending FlightAware UK
03:37AM 51.7265 -5.3019 94° East 438 504 31,500 3,720 Level FlightAware UK
03:37AM 51.7300 -5.2810 94° East 459 528 33,000  Climbing FlightAware
03:38AM 51.7225 -5.2203 94° East 436 502 31,500 -2,160 Descending FlightAware UK
03:38AM 51.7183 -5.1388 95° East 436 502 31,500 3,300 Level FlightAware UK
03:38AM 51.7220 -5.1250 95° East 458 527 33,000 -1,020 Climbing FlightAware
03:39AM 51.7108 -4.9956 95° East 448 516 30,800 -900 Descending FlightAware UK
03:39AM 51.7150 -4.9870 95° East 467 537 32,400 -720 Climbing FlightAware
03:39AM 51.7074 -4.9335 95° East 450 518 30,600 -900 Descending FlightAware UK
03:39AM 51.7070 -4.8480 95° East 470 541 31,800 -1,020 Climbing FlightAware
03:39AM 51.7029 -4.8491 95° East 452 520 30,200 -5,400 Descending FlightAware UK
03:40AM 51.6994 -4.7855 95° East 452 520 30,000 -840 Descending FlightAware UK
03:40AM 51.6960 -4.7226 95° East 454 522 29,700 2,880 Descending FlightAware UK
03:40AM 51.6990 -4.6930 95° East 471 542 31,200 1,620 Climbing FlightAware
03:41AM 51.6920 -4.5540 95° East 465 535 31,000 -2,520 Descending FlightAware
03:41AM 51.6869 -4.5553 95° East 450 518 29,500 -5,100 Descending FlightAware UK
03:41AM 51.6835 -4.4932 95° East 448 516 29,400 -180 Descending FlightAware UK
03:41AM 51.6791 -4.4113 95° East 448 516 29,400 3,660 Level FlightAware UK
03:41AM 51.6830 -4.3960 95° East 463 533 31,000 300 Climbing FlightAware
03:42AM 51.6757 -4.3500 95° East 450 518 29,500 -2,700 Descending FlightAware UK
03:42AM 51.6723 -4.2880 95° East 454 522 29,500 3,720 Level FlightAware UK
03:42AM 51.6760 -4.2580 95° East 468 539 31,000  Climbing FlightAware
03:42AM 51.6674 -4.2042 95° East 454 522 29,500 -2,520 Descending FlightAware UK
03:43AM 51.6637 -4.1424 96° East 454 522 29,500 4,080 Level FlightAware UK
03:43AM 51.6670 -4.1210 96° East 470 541 31,000  Climbing FlightAware
03:43AM 51.6586 -4.0582 96° East 458 527 29,500  Descending FlightAware UK
03:44AM 51.6580 -3.9610 96° East 471 542 31,000 -300 Climbing FlightAware
03:44AM 51.6497 -3.9119 96° East 458 527 29,300 -3,300 Descending FlightAware UK
03:44AM 51.6458 -3.8495 96° East 454 522 29,100 3,360 Descending FlightAware UK
03:44AM 51.6500 -3.8230 96° East 464 534 30,600 -1,020 Climbing FlightAware
03:45AM 51.6407 -3.7676 96° East 452 520 28,700 -1,260 Descending FlightAware UK
03:45AM 51.6445 -3.7380 96° East 461 531 30,100 -1,500 Climbing FlightAware ADS-B
03:45AM 51.6357 -3.6870 96° East 446 513 28,100 -3,360 Descending FlightAware UK
03:45AM 51.6306 -3.6058 96° East 444 511 27,700 1,140 Descending FlightAware UK
03:46AM 51.6320 -3.5380 96° East 449 517 28,900 1,260 Climbing FlightAware
03:46AM 51.6276 -3.4693 96° East 446 513 28,500 -3,480 Descending FlightAware ADS-B
03:46AM 51.6178 -3.4079 96° East 436 502 26,500 -1,200 Descending FlightAware UK
03:46AM 51.6211 -3.3681 96° East 446 513 27,900 -1,020 Climbing FlightAware ADS-B
03:47AM 51.6128 -3.3304 96° East 434 499 26,100 -3,900 Descending FlightAware UK
03:47AM 51.6078 -3.2728 98° East 432 497 25,700 3,780 Descending FlightAware UK
03:47AM 51.6130 -3.2640 98° East 435 501 27,300 5,520 Climbing FlightAware
03:47AM 51.6079 -3.2166 100° East 436 502 27,000 -3,540 Descending FlightAware ADS-B
03:48AM 51.5913 -3.1398 100° East 426 490 24,900 -1,200 Descending FlightAware UK
03:48AM 51.5911 -3.0855 100° East 431 496 26,200 -1,020 Climbing FlightAware ADS-B
03:48AM 51.5761 -3.0277 100° East 422 486 24,300 -1,020 Descending FlightAware UK
03:48AM 51.5790 -2.9990 100° East 426 490 25,700 6,480 Climbing FlightAware
03:49AM 51.5768 -2.9787 100° East 427 491 25,600 -4,500 Descending FlightAware ADS-B
03:49AM 51.5612 -2.9166 100° East 418 481 23,600 -1,140 Descending FlightAware UK
03:49AM 51.5638 -2.8804 100° East 422 486 25,000 -1,020 Climbing FlightAware ADS-B
03:49AM 51.5514 -2.8433 100° East 416 479 23,200 -900 Descending FlightAware UK
03:50AM 51.5475 -2.7576 100° East 416 479 24,400 1,020 Climbing FlightAware ADS-B
03:50AM 51.5369 -2.6941 105° East 417 480 24,000 -3,300 Descending FlightAware ADS-B
03:50AM 51.5167 -2.6485 105° East 408 470 22,100 -840 Descending FlightAware UK
03:51AM 51.5126 -2.5899 105° East 412 474 23,500 1,140 Climbing FlightAware ADS-B
03:51AM 51.4927 -2.5034 110° East 408 470 23,000 -2,880 Descending FlightAware ADS-B
03:52AM 51.4733 -2.4593 110° East 402 463 21,100 -1,020 Descending FlightAware UK
03:52AM 51.4731 -2.4174 110° East 405 466 22,500 -840 Climbing FlightAware ADS-B
03:52AM 51.4543 -2.3755 110° East 400 460 20,700 -780 Descending FlightAware UK
03:52AM 51.4538 -2.3310 110° East 402 463 22,100 -1,020 Climbing FlightAware ADS-B
03:53AM 51.4352 -2.2916 110° East 398 458 20,200 -1,020 Descending FlightAware UK
03:53AM 51.4345 -2.2459 110° East 399 459 21,600 -840 Climbing FlightAware ADS-B
03:53AM 51.4164 -2.2087 110° East 400 460 19,800 -780 Descending FlightAware UK
03:53AM 51.4151 -2.1607 110° East 392 451 21,200 2,460 Climbing FlightAware ADS-B
03:54AM 51.4050 -2.1158 110° East 388 447 21,000 -1,200 Descending FlightAware ADS-B
03:54AM 51.3999 -2.0890 107° East 384 442 20,700 -2,220 Descending FlightAware ADS-B
03:54AM 51.3951 -2.0543 102° East 381 438 20,200 -2,400 Descending FlightAware ADS-B
03:54AM 51.3911 -2.0116 99° East 378 435 19,600 -5,100 Descending FlightAware ADS-B
03:54AM 51.3830 -1.9783 99° East 384 442 17,400 -2,160 Descending FlightAware UK
03:55AM 51.3885 -1.9274 99° East 372 428 18,500 -2,040 Climbing FlightAware ADS-B
03:55AM 51.3807 -1.8954 99° East 374 430 16,400 -2,220 Descending FlightAware UK
03:55AM 51.3863 -1.8433 99° East 369 425 17,400 -2,340 Climbing FlightAware ADS-B
03:56AM 51.3779 -1.7977 99° East 368 423 15,000 -2,340 Descending FlightAware UK
03:56AM 51.3839 -1.7601 99° East 358 412 16,200 -2,820 Climbing FlightAware ADS-B
03:56AM 51.3757 -1.7188 99° East 364 419 13,600 -2,760 Descending FlightAware UK
03:56AM 51.3818 -1.6794 99° East 353 406 14,800 -2,040 Climbing FlightAware ADS-B
03:56AM 51.3742 -1.6564 99° East 360 414 12,800 -4,200 Descending FlightAware UK
03:57AM 51.3731 -1.6103 92° East 352 405 12,500 3,420 Descending FlightAware UK
03:57AM 51.3796 -1.5865 92° East 342 394 14,000  Climbing FlightAware ADS-B
03:57AM 51.3714 -1.5653 92° East 350 403 12,500  Descending FlightAware UK
03:57AM 51.3771 -1.5412 92° East 343 395 14,000  Climbing FlightAware ADS-B
03:57AM 51.3657 -1.5204 92° East 350 403 12,500  Descending FlightAware UK
03:58AM 51.3669 -1.4631 92° East 345 397 14,000  Climbing FlightAware ADS-B
03:58AM 51.3527 -1.4307 92° East 350 403 12,500  Descending FlightAware UK
03:58AM 51.3559 -1.3887 92° East 344 396 14,000 1,860 Climbing FlightAware ADS-B
03:59AM 51.3446 -1.3139 104° East 341 392 13,800 -2,580 Descending FlightAware ADS-B
03:59AM 51.3301 -1.2830 104° East 346 398 11,900 -1,380 Descending FlightAware UK
03:59AM 51.3336 -1.2398 104° East 338 389 13,100 -1,620 Climbing FlightAware ADS-B
03:59AM 51.3193 -1.2104 104° East 342 394 11,100 -1,800 Descending FlightAware UK
04:00AM 51.3249 -1.1800 104° East 333 383 12,400 2,460 Climbing FlightAware ADS-B
04:00AM 51.3214 -1.1385 98° East 328 377 12,100 -3,360 Descending FlightAware ADS-B
04:00AM 51.3129 -1.1094 98° East 336 387 10,400 -600 Descending FlightAware UK
04:00AM 51.3200 -1.0664 98° East 324 373 11,800 1,140 Climbing FlightAware ADS-B
04:01AM 51.3192 -0.9958 91° East 312 359 11,200 -1,020 Descending FlightAware ADS-B
04:01AM 51.3185 -0.9270 91° East 291 335 10,800 -2,640 Descending FlightAware ADS-B
04:02AM 51.3103 -0.9055 91° East 292 336 9,100 -840 Descending FlightAware UK
04:02AM 51.3180 -0.8640 91° East 277 319 10,400 -1,200 Climbing FlightAware ADS-B
04:02AM 51.3099 -0.8446 91° East 286 329 8,500 -1,200 Descending FlightAware UK
04:02AM 51.3178 -0.8221 91° East 273 314 10,000 3,960 Climbing FlightAware ADS-B
04:02AM 51.3178 -0.7921 90° East 271 312 9,700 -1,200 Descending FlightAware ADS-B
04:03AM 51.3177 -0.7620 90° East 265 305 9,400 -780 Descending FlightAware ADS-B
04:03AM 51.3177 -0.7332 90° East 258 297 9,300 -660 Descending FlightAware ADS-B
04:03AM 51.3175 -0.7071 91° East 250 288 9,100 -840 Descending FlightAware ADS-B
04:03AM 51.3171 -0.6779 91° East 244 281 8,900 -960 Descending FlightAware ADS-B
04:04AM 51.3170 -0.6491 90° East 240 276 8,600 -1,020 Descending FlightAware ADS-B
04:04AM 51.3166 -0.6226 91° East 237 273 8,400 -1,020 Descending FlightAware ADS-B
04:04AM 51.3161 -0.5962 92° East 236 272 8,100 -780 Descending FlightAware ADS-B
04:04AM 51.3158 -0.5689 91° East 234 269 8,000 -240 Descending FlightAware ADS-B
04:05AM 51.3156 -0.5428 91° East 237 273 8,000  Level FlightAware ADS-B
04:05AM 51.3152 -0.5233 92° East 238 274 8,000  Level FlightAware ADS-B
04:05AM 51.3150 -0.4958 91° East 238 274 8,000  Level FlightAware ADS-B
04:05AM 51.3147 -0.4723 91° East 239 275 8,000  Level FlightAware ADS-B
04:06AM 51.3144 -0.4475 91° East 238 274 8,000  Level FlightAware ADS-B
04:06AM 51.3142 -0.4367 92° East 237 273 8,000  Level FlightAware ADS-B
04:06AM 51.3147 -0.4285 84° East 236 272 8,000  Level FlightAware ADS-B
04:06AM 51.3170 -0.4173 72° East 235 270 8,000  Level FlightAware ADS-B
04:06AM 51.3187 -0.4122 62° Northeast 234 269 8,000  Level FlightAware ADS-B
04:06AM 51.3218 -0.4058 52° Northeast 234 269 8,000  Level FlightAware ADS-B
04:06AM 51.3247 -0.4014 44° Northeast 235 270 8,000  Level FlightAware ADS-B
04:06AM 51.3284 -0.3971 36° Northeast 236 272 8,000  Level FlightAware ADS-B
04:06AM 51.3319 -0.3941 28° Northeast 236 272 8,000  Level FlightAware ADS-B
04:06AM 51.3360 -0.3919 19° North 237 273 8,000  Level FlightAware ADS-B
04:06AM 51.3401 -0.3905 12° North 237 273 8,000  Level FlightAware ADS-B
04:06AM 51.3461 -0.3902 North 237 273 8,000  Level FlightAware ADS-B
04:07AM 51.3602 -0.3923 355° North 236 272 8,000  Level FlightAware ADS-B
04:07AM 51.3767 -0.3947 355° North 237 273 8,000 -600 Level FlightAware ADS-B
04:07AM 51.3933 -0.3967 356° North 236 272 7,700 -900 Descending FlightAware ADS-B
04:07AM 51.3992 -0.3976 355° North 234 269 7,700 -720 Level FlightAware ADS-B
04:07AM 51.4028 -0.3990 346° North 234 269 7,600 -1,200 Descending FlightAware ADS-B
04:07AM 51.4089 -0.4029 338° Northwest 234 269 7,500 -600 Descending FlightAware ADS-B
04:08AM 51.4133 -0.4079 325° Northwest 233 268 7,500 -780 Level FlightAware ADS-B
04:08AM 51.4160 -0.4120 317° Northwest 234 269 7,400 -900 Descending FlightAware ADS-B
04:08AM 51.4184 -0.4168 309° West 235 270 7,400 -780 Level FlightAware ADS-B
04:08AM 51.4206 -0.4228 300° West 237 273 7,300 -600 Descending FlightAware ADS-B
04:08AM 51.4229 -0.4324 291° West 238 274 7,300 -600 Level FlightAware ADS-B
04:08AM 51.4236 -0.4386 280° West 240 276 7,200 -900 Descending FlightAware ADS-B
04:08AM 51.4237 -0.4449 271° West 242 278 7,200 -900 Level FlightAware ADS-B
04:08AM 51.4234 -0.4525 266° West 243 280 7,100 -900 Descending FlightAware ADS-B
04:08AM 51.4227 -0.4578 258° West 245 282 7,100 -780 Level FlightAware ADS-B
04:08AM 51.4211 -0.4658 252° West 245 282 7,000 -300 Descending FlightAware ADS-B
04:08AM 51.4150 -0.4915 249° West 246 283 7,000 -240 Level FlightAware ADS-B
04:09AM 51.4090 -0.5174 250° West 247 284 6,900 -600 Descending FlightAware ADS-B
04:09AM 51.4031 -0.5438 250° West 245 282 6,700 -840 Descending FlightAware ADS-B
04:09AM 51.3980 -0.5667 250° West 244 281 6,500 -1,080 Descending FlightAware ADS-B
04:09AM 51.3969 -0.5728 254° West 244 281 6,400 -900 Descending FlightAware ADS-B
04:09AM 51.3964 -0.5791 263° West 243 280 6,400 -900 Level FlightAware ADS-B
04:09AM 51.3962 -0.5861 267° West 243 280 6,300 -1,020 Descending FlightAware ADS-B
04:10AM 51.3966 -0.6120 271° West 245 282 6,100 -900 Descending FlightAware ADS-B
04:10AM 51.3968 -0.6350 271° West 243 280 5,900 -1,080 Descending FlightAware ADS-B
04:10AM 51.3968 -0.6626 270° West 242 278 5,600 -1,020 Descending FlightAware ADS-B
04:10AM 51.3968 -0.6894 270° West 241 277 5,400 -420 Descending FlightAware ADS-B
04:11AM 51.3968 -0.7163 270° West 241 277 5,400  Level FlightAware ADS-B
04:11AM 51.3969 -0.7431 270° West 242 278 5,400  Level FlightAware ADS-B
04:11AM 51.3969 -0.7703 270° West 242 278 5,400  Level FlightAware ADS-B
04:11AM 51.3969 -0.7977 270° West 241 277 5,400 -240 Level FlightAware ADS-B
04:11AM 51.3971 -0.8197 271° West 238 274 5,300 -360 Descending FlightAware ADS-B
04:12AM 51.3973 -0.8280 272° West 236 272 5,300 -600 Level FlightAware ADS-B
04:12AM 51.3983 -0.8390 278° West 233 268 5,200 -840 Descending FlightAware ADS-B
04:12AM 51.4021 -0.8644 284° West 222 255 5,000 -780 Descending FlightAware ADS-B
04:12AM 51.4062 -0.8897 285° West 213 245 4,800 -900 Descending FlightAware ADS-B
04:12AM 51.4076 -0.8977 286° West 210 242 4,700 -720 Descending FlightAware ADS-B
04:12AM 51.4086 -0.9026 288° West 208 239 4,700 -780 Level FlightAware ADS-B
04:12AM 51.4102 -0.9078 296° West 204 235 4,600 -900 Descending FlightAware ADS-B
04:12AM 51.4119 -0.9117 305° West 201 231 4,600 -1,020 Level FlightAware ADS-B
04:13AM 51.4138 -0.9151 312° West 198 228 4,500 -1,020 Descending FlightAware ADS-B
04:13AM 51.4158 -0.9180 318° Northwest 194 223 4,500 -780 Level FlightAware ADS-B
04:13AM 51.4198 -0.9215 332° Northwest 189 217 4,400 -780 Descending FlightAware ADS-B
04:13AM 51.4225 -0.9231 340° North 187 215 4,400 -780 Level FlightAware ADS-B
04:13AM 51.4261 -0.9242 349° North 186 214 4,300 -720 Descending FlightAware ADS-B
04:13AM 51.4299 -0.9251 352° North 185 213 4,300 -600 Level FlightAware ADS-B
04:13AM 51.4431 -0.9270 355° North 187 215 4,100 -840 Descending FlightAware ADS-B
04:13AM 51.4555 -0.9282 357° North 184 212 3,900 -600 Descending FlightAware ADS-B
04:13AM 51.4603 -0.9263 14° North 182 209 3,900 -480 Level FlightAware ADS-B
04:14AM 51.4653 -0.9212 33° Northeast 178 205 3,800 -600 Descending FlightAware ADS-B
04:14AM 51.4672 -0.9179 47° Northeast 176 203 3,800  Level FlightAware ADS-B
04:14AM 51.4690 -0.9136 56° Northeast 176 203 3,800  Level FlightAware ADS-B
04:14AM 51.4750 -0.8959 61° Northeast 177 204 3,800 -360 Level FlightAware ADS-B
04:14AM 51.4833 -0.8731 60° Northeast 176 203 3,600 -540 Descending FlightAware ADS-B
04:14AM 51.4843 -0.8695 66° East 174 200 3,600  Level FlightAware ADS-B
04:14AM 51.4854 -0.8655 66° East 175 201 3,600  Level FlightAware ADS-B
04:14AM 51.4861 -0.8604 78° East 173 199 3,600 -720 Level FlightAware ADS-B
04:15AM 51.4864 -0.8546 85° East 172 198 3,500 -780 Descending FlightAware ADS-B
04:15AM 51.4865 -0.8501 88° East 171 197 3,500 -360 Level FlightAware ADS-B
04:15AM 51.4862 -0.8330 92° East 173 199 3,400 -300 Descending FlightAware ADS-B
04:15AM 51.4862 -0.8238 90° East 173 199 3,400 -420 Level FlightAware ADS-B
04:15AM 51.4866 -0.8123 87° East 170 196 3,300 -600 Descending FlightAware ADS-B
04:15AM 51.4867 -0.7986 89° East 168 193 3,200 -540 Descending FlightAware ADS-B
04:15AM 51.4869 -0.7831 89° East 168 193 3,100 -540 Descending FlightAware ADS-B
04:16AM 51.4871 -0.7696 89° East 167 192 3,000 -480 Descending FlightAware ADS-B
04:16AM 51.4872 -0.7507 90° East 167 192 2,900 -420 Descending FlightAware ADS-B
04:16AM 51.4874 -0.7327 89° East 167 192 2,800 -420 Descending FlightAware ADS-B
04:16AM 51.4876 -0.7138 89° East 163 188 2,700 -540 Descending FlightAware ADS-B
04:17AM 51.4876 -0.7047 90° East 160 184 2,600 -840 Descending FlightAware ADS-B
04:17AM 51.4878 -0.6872 89° East 155 178 2,400 -840 Descending FlightAware ADS-B
04:17AM 51.4879 -0.6704 89° East 149 171 2,200 -900 Descending FlightAware ADS-B
04:17AM 51.4881 -0.6573 89° East 149 171 2,000 -900 Descending FlightAware ADS-B
04:17AM 51.4883 -0.6412 89° East 150 173 1,800 -840 Descending FlightAware ADS-B
04:18AM 51.4884 -0.6242 89° East 146 168 1,600 -780 Descending FlightAware ADS-B
04:18AM 51.4885 -0.6151 89° East 150 173 1,500 -900 Descending FlightAware ADS-B
04:18AM 51.4886 -0.6020 89° East 150 173 1,300 -900 Descending FlightAware ADS-B
04:18AM 51.4886 -0.5850 90° East 146 168 1,100 -900 Descending FlightAware ADS-B
04:19AM 51.4889 -0.5584 89° East 134 154 700 -780 Descending FlightAware ADS-B
04:20AM 51.4890 -0.5130 90° East 131 151 100 -720 Descending FlightAware